createdAt,value
2016-09-26T00:00:32.832Z,21.73
2016-09-26T00:01:32.511Z,21.77
2016-09-26T00:02:32.798Z,21.75
2016-09-26T00:03:32.778Z,21.75
2016-09-26T00:04:32.754Z,21.74
2016-09-26T00:05:32.754Z,21.79
2016-09-26T00:06:32.729Z,21.73
2016-09-26T00:07:32.415Z,21.73
2016-09-26T00:08:32.710Z,21.71
2016-09-26T00:09:32.694Z,21.74
2016-09-26T00:10:32.667Z,21.79
2016-09-26T00:11:32.651Z,21.73
2016-09-26T00:12:32.643Z,21.79
2016-09-26T00:13:32.619Z,21.71
2016-09-26T00:14:32.603Z,21.77
2016-09-26T00:15:32.604Z,21.73
2016-09-26T00:16:32.565Z,21.77
2016-09-26T00:17:32.256Z,21.74
2016-09-26T00:18:32.536Z,21.74
2016-09-26T00:19:32.514Z,21.77
2016-09-26T00:20:32.515Z,21.77
2016-09-26T00:21:32.489Z,21.7
2016-09-26T00:22:32.170Z,21.74
2016-09-26T00:23:32.456Z,21.73
2016-09-26T00:24:32.439Z,21.86
2016-09-26T00:25:32.421Z,21.73
2016-09-26T00:26:32.411Z,21.73
2016-09-26T00:27:32.390Z,21.77
2016-09-26T00:28:32.374Z,21.71
2016-09-26T00:29:32.360Z,21.77
2016-09-26T00:30:32.341Z,21.74
2016-09-26T00:31:32.330Z,21.74
2016-09-26T00:32:32.321Z,21.75
2016-09-26T00:33:32.297Z,21.71
2016-09-26T00:34:32.282Z,21.79
2016-09-26T00:35:32.260Z,21.75
2016-09-26T00:36:32.252Z,21.75
2016-09-26T00:37:32.251Z,21.73
2016-09-26T00:38:32.213Z,21.77
2016-09-26T00:39:32.196Z,21.74
2016-09-26T00:40:32.181Z,21.71
2016-09-26T00:41:32.169Z,21.75
2016-09-26T00:42:32.155Z,21.73
2016-09-26T00:43:31.821Z,21.74
2016-09-26T00:44:32.116Z,21.73
2016-09-26T00:45:32.199Z,21.74
2016-09-26T00:46:32.085Z,21.73
2016-09-26T00:47:32.067Z,21.71
2016-09-26T00:48:32.051Z,21.7
2016-09-26T00:49:32.037Z,21.77
2016-09-26T00:50:32.044Z,21.77
2016-09-26T00:51:32.005Z,21.77
2016-09-26T00:52:31.981Z,21.77
2016-09-26T00:53:31.670Z,21.75
2016-09-26T00:54:31.958Z,21.73
2016-09-26T00:55:31.937Z,21.74
2016-09-26T00:56:31.923Z,21.66
2016-09-26T00:57:31.903Z,21.7
2016-09-26T00:58:31.891Z,21.67
2016-09-26T00:59:31.882Z,21.73
2016-09-26T01:00:31.858Z,21.68
2016-09-26T01:01:31.840Z,21.64
2016-09-26T01:02:31.839Z,21.71
2016-09-26T01:03:31.812Z,21.7
2016-09-26T01:04:31.796Z,21.71
2016-09-26T01:05:31.773Z,21.71
2016-09-26T01:06:31.766Z,21.66
2016-09-26T01:07:31.445Z,21.67
2016-09-26T01:08:31.725Z,21.7
2016-09-26T01:09:31.408Z,21.67
2016-09-26T01:10:31.701Z,21.61
2016-09-26T01:11:31.686Z,21.66
2016-09-26T01:12:31.663Z,21.68
2016-09-26T01:13:31.347Z,21.68
2016-09-26T01:14:31.328Z,21.73
2016-09-26T01:15:31.619Z,21.73
2016-09-26T01:16:31.600Z,21.68
2016-09-26T01:17:31.584Z,21.73
2016-09-26T01:18:31.576Z,21.7
2016-09-26T01:19:31.549Z,21.7
2016-09-26T01:20:31.539Z,21.68
2016-09-26T01:21:31.531Z,21.71
2016-09-26T01:22:31.498Z,21.7
2016-09-26T01:23:31.492Z,21.68
2016-09-26T01:24:31.469Z,21.63
2016-09-26T01:25:31.452Z,21.7
2016-09-26T01:26:31.440Z,21.66
2016-09-26T01:27:31.422Z,21.64
2016-09-26T01:28:31.406Z,21.56
2016-09-26T01:29:31.391Z,21.67
2016-09-26T01:30:31.381Z,21.68
2016-09-26T01:31:31.359Z,21.63
2016-09-26T01:32:31.035Z,21.61
2016-09-26T01:33:31.326Z,21.61
2016-09-26T01:34:31.315Z,21.66
2016-09-26T01:35:31.289Z,21.59
2016-09-26T01:36:31.277Z,21.59
2016-09-26T01:37:31.265Z,21.66
2016-09-26T01:38:31.248Z,21.68
2016-09-26T01:39:31.229Z,21.63
2016-09-26T01:40:31.220Z,21.56
2016-09-26T01:41:31.192Z,21.53
2016-09-26T01:42:31.183Z,21.59
2016-09-26T01:43:31.169Z,21.58
2016-09-26T01:44:31.155Z,21.59
2016-09-26T01:45:31.132Z,21.53
2016-09-26T01:46:31.121Z,21.56
2016-09-26T01:47:31.104Z,21.63
2016-09-26T01:48:31.078Z,21.52
2016-09-26T01:49:31.072Z,21.55
2016-09-26T01:50:30.750Z,21.58
2016-09-26T01:51:31.033Z,21.59
2016-09-26T01:52:31.024Z,21.52
2016-09-26T01:53:31.004Z,21.46
2016-09-26T01:54:30.983Z,21.53
2016-09-26T01:55:30.966Z,21.58
2016-09-26T01:56:30.951Z,21.49
2016-09-26T01:57:30.932Z,21.58
2016-09-26T01:58:30.917Z,21.52
2016-09-26T01:59:30.903Z,21.58
2016-09-26T02:00:30.893Z,21.52
2016-09-26T02:01:30.874Z,21.58
2016-09-26T02:02:30.555Z,21.55
2016-09-26T02:03:30.534Z,21.55
2016-09-26T02:04:30.825Z,21.55
2016-09-26T02:05:30.510Z,21.55
2016-09-26T02:06:30.494Z,21.53
2016-09-26T02:07:30.786Z,21.55
2016-09-26T02:08:30.771Z,21.56
2016-09-26T02:09:30.744Z,21.59
2016-09-26T02:10:30.726Z,21.49
2016-09-26T02:11:30.712Z,21.59
2016-09-26T02:12:30.698Z,21.55
2016-09-26T02:13:30.677Z,21.56
2016-09-26T02:14:30.671Z,21.55
2016-09-26T02:15:30.642Z,21.53
2016-09-26T02:16:30.627Z,21.52
2016-09-26T02:17:30.618Z,21.56
2016-09-26T02:18:30.609Z,21.53
2016-09-26T02:19:30.576Z,21.56
2016-09-26T02:20:30.560Z,21.49
2016-09-26T02:21:30.550Z,21.49
2016-09-26T02:22:30.532Z,21.51
2016-09-26T02:23:30.212Z,21.55
2016-09-26T02:24:30.494Z,21.52
2016-09-26T02:25:30.485Z,21.52
2016-09-26T02:26:30.167Z,21.59
2016-09-26T02:27:30.153Z,21.49
2016-09-26T02:28:30.435Z,21.49
2016-09-26T02:29:30.423Z,21.58
2016-09-26T02:30:30.399Z,21.52
2016-09-26T02:31:30.386Z,21.46
2016-09-26T02:32:30.366Z,21.48
2016-09-26T02:33:30.350Z,21.52
2016-09-26T02:34:30.333Z,21.49
2016-09-26T02:35:30.326Z,21.53
2016-09-26T02:36:30.301Z,21.53
2016-09-26T02:37:30.285Z,21.52
2016-09-26T02:38:30.275Z,21.55
2016-09-26T02:39:30.252Z,21.53
2016-09-26T02:40:30.246Z,21.49
2016-09-26T02:41:30.226Z,21.49
2016-09-26T02:42:30.202Z,21.49
2016-09-26T02:43:30.193Z,21.52
2016-09-26T02:44:30.173Z,21.55
2016-09-26T02:45:30.156Z,21.56
2016-09-26T02:46:30.139Z,21.58
2016-09-26T02:47:30.122Z,21.59
2016-09-26T02:48:30.104Z,21.52
2016-09-26T02:49:30.082Z,21.58
2016-09-26T02:50:30.073Z,21.52
2016-09-26T02:51:30.073Z,21.53
2016-09-26T02:52:30.040Z,21.49
2016-09-26T02:53:30.035Z,21.55
2016-09-26T02:54:30.008Z,21.52
2016-09-26T02:55:29.998Z,21.52
2016-09-26T02:56:29.678Z,21.48
2016-09-26T02:57:29.660Z,21.53
2016-09-26T02:58:29.942Z,21.49
2016-09-26T02:59:29.933Z,21.48
2016-09-26T03:00:29.615Z,21.51
2016-09-26T03:01:29.890Z,21.48
2016-09-26T03:02:29.882Z,21.51
2016-09-26T03:03:29.561Z,21.51
2016-09-26T03:04:29.245Z,21.51
2016-09-26T03:05:29.827Z,21.51
2016-09-26T03:06:29.817Z,21.53
2016-09-26T03:07:29.801Z,21.53
2016-09-26T03:08:29.821Z,21.45
2016-09-26T03:09:29.471Z,21.55
2016-09-26T03:10:29.445Z,21.43
2016-09-26T03:11:29.736Z,21.4
2016-09-26T03:12:29.721Z,21.43
2016-09-26T03:13:29.703Z,21.53
2016-09-26T03:14:29.678Z,21.46
2016-09-26T03:15:29.667Z,21.51
2016-09-26T03:16:29.670Z,21.55
2016-09-26T03:17:29.333Z,21.4
2016-09-26T03:18:29.618Z,21.4
2016-09-26T03:19:29.600Z,21.43
2016-09-26T03:20:29.595Z,21.49
2016-09-26T03:21:29.571Z,21.42
2016-09-26T03:22:29.557Z,21.49
2016-09-26T03:23:29.536Z,21.52
2016-09-26T03:24:29.518Z,21.48
2016-09-26T03:25:29.501Z,21.53
2016-09-26T03:26:29.490Z,21.45
2016-09-26T03:27:29.471Z,21.52
2016-09-26T03:28:29.465Z,21.48
2016-09-26T03:29:29.444Z,21.55
2016-09-26T03:30:29.418Z,21.38
2016-09-26T03:31:29.422Z,21.45
2016-09-26T03:32:29.395Z,21.4
2016-09-26T03:33:29.374Z,21.55
2016-09-26T03:34:29.360Z,21.46
2016-09-26T03:35:29.351Z,21.37
2016-09-26T03:36:29.032Z,21.36
2016-09-26T03:37:29.314Z,21.42
2016-09-26T03:38:29.303Z,21.38
2016-09-26T03:39:29.278Z,21.4
2016-09-26T03:40:29.260Z,21.45
2016-09-26T03:41:28.942Z,21.43
2016-09-26T03:42:29.231Z,21.43
2016-09-26T03:43:29.212Z,21.38
2016-09-26T03:44:29.195Z,21.37
2016-09-26T03:45:29.179Z,21.4
2016-09-26T03:46:29.164Z,21.4
2016-09-26T03:47:29.144Z,21.42
2016-09-26T03:48:29.132Z,21.36
2016-09-26T03:49:29.114Z,21.45
2016-09-26T03:50:29.097Z,21.38
2016-09-26T03:51:29.082Z,21.34
2016-09-26T03:52:29.072Z,21.37
2016-09-26T03:53:29.055Z,21.45
2016-09-26T03:54:29.031Z,21.38
2016-09-26T03:55:29.012Z,21.37
2016-09-26T03:56:29.008Z,21.43
2016-09-26T03:57:28.994Z,21.45
2016-09-26T03:58:28.960Z,21.46
2016-09-26T03:59:28.953Z,21.4
2016-09-26T04:00:28.930Z,21.42
2016-09-26T04:01:28.915Z,21.43
2016-09-26T04:02:28.896Z,21.42
2016-09-26T04:03:28.879Z,21.42
2016-09-26T04:04:28.565Z,21.4
2016-09-26T04:05:28.855Z,21.36
2016-09-26T04:06:28.831Z,21.43
2016-09-26T04:07:28.818Z,21.4
2016-09-26T04:08:28.812Z,21.36
2016-09-26T04:09:28.785Z,21.45
2016-09-26T04:10:28.769Z,21.43
2016-09-26T04:11:28.151Z,21.4
2016-09-26T04:12:28.736Z,21.4
2016-09-26T04:13:28.718Z,21.37
2016-09-26T04:14:28.403Z,21.37
2016-09-26T04:15:28.685Z,21.31
2016-09-26T04:16:28.675Z,21.33
2016-09-26T04:17:28.646Z,21.33
2016-09-26T04:18:28.687Z,21.3
2016-09-26T04:19:28.625Z,21.36
2016-09-26T04:20:28.611Z,21.36
2016-09-26T04:21:28.593Z,21.28
2016-09-26T04:22:28.278Z,21.31
2016-09-26T04:23:28.564Z,21.27
2016-09-26T04:24:28.539Z,21.33
2016-09-26T04:25:28.524Z,21.24
2016-09-26T04:26:28.513Z,21.36
2016-09-26T04:27:28.496Z,21.28
2016-09-26T04:28:28.474Z,21.28
2016-09-26T04:29:28.456Z,21.34
2016-09-26T04:30:28.138Z,21.28
2016-09-26T04:31:28.423Z,21.28
2016-09-26T04:32:28.415Z,21.24
2016-09-26T04:33:28.404Z,21.3
2016-09-26T04:34:28.373Z,21.24
2016-09-26T04:35:28.364Z,21.31
2016-09-26T04:36:28.349Z,21.27
2016-09-26T04:37:28.325Z,21.31
2016-09-26T04:38:28.305Z,21.22
2016-09-26T04:39:28.295Z,21.26
2016-09-26T04:40:28.272Z,21.24
2016-09-26T04:41:28.256Z,21.27
2016-09-26T04:42:27.941Z,21.27
2016-09-26T04:43:28.224Z,21.26
2016-09-26T04:44:28.227Z,21.24
2016-09-26T04:45:28.200Z,21.22
2016-09-26T04:46:27.879Z,21.19
2016-09-26T04:47:27.867Z,21.28
2016-09-26T04:48:28.145Z,21.26
2016-09-26T04:49:28.123Z,21.16
2016-09-26T04:50:28.112Z,21.22
2016-09-26T04:51:28.099Z,21.21
2016-09-26T04:52:28.085Z,21.24
2016-09-26T04:53:28.063Z,21.24
2016-09-26T04:54:27.756Z,21.09
2016-09-26T04:55:28.033Z,21.13
2016-09-26T04:56:28.012Z,21.21
2016-09-26T04:57:27.999Z,21.26
2016-09-26T04:58:27.975Z,21.22
2016-09-26T04:59:27.964Z,21.19
2016-09-26T05:00:27.945Z,21.11
2016-09-26T05:01:27.929Z,21.18
2016-09-26T05:02:27.912Z,21.13
2016-09-26T05:03:27.932Z,21.12
2016-09-26T05:04:27.884Z,21.28
2016-09-26T05:05:27.873Z,21.27
2016-09-26T05:06:27.846Z,21.24
2016-09-26T05:07:27.837Z,21.21
2016-09-26T05:08:27.816Z,21.26
2016-09-26T05:09:27.530Z,21.27
2016-09-26T05:10:27.783Z,21.11
2016-09-26T05:11:27.768Z,21.22
2016-09-26T05:12:27.747Z,21.13
2016-09-26T05:13:27.733Z,21.13
2016-09-26T05:14:27.715Z,21.13
2016-09-26T05:15:27.696Z,21.12
2016-09-26T05:16:27.679Z,21.26
2016-09-26T05:17:27.671Z,21.21
2016-09-26T05:18:27.649Z,21.26
2016-09-26T05:19:27.641Z,21.19
2016-09-26T05:20:27.627Z,21.24
2016-09-26T05:21:27.300Z,21.11
2016-09-26T05:22:27.588Z,21.08
2016-09-26T05:23:27.564Z,21.15
2016-09-26T05:24:27.563Z,21.05
2016-09-26T05:25:27.538Z,21.08
2016-09-26T05:26:27.511Z,21.06
2016-09-26T05:27:27.500Z,21.03
2016-09-26T05:28:27.491Z,21.11
2016-09-26T05:29:27.467Z,21.08
2016-09-26T05:30:27.454Z,21.12
2016-09-26T05:31:27.433Z,21.11
2016-09-26T05:32:27.427Z,21.06
2016-09-26T05:33:27.408Z,21.09
2016-09-26T05:34:27.381Z,21.09
2016-09-26T05:35:27.370Z,21.09
2016-09-26T05:36:27.356Z,21.06
2016-09-26T05:37:27.338Z,21.09
2016-09-26T05:38:27.026Z,21.11
2016-09-26T05:39:27.297Z,21.01
2016-09-26T05:40:27.297Z,21.01
2016-09-26T05:41:27.277Z,20.98
2016-09-26T05:42:27.248Z,21.03
2016-09-26T05:43:26.937Z,21
2016-09-26T05:44:27.217Z,20.98
2016-09-26T05:45:27.199Z,21.01
2016-09-26T05:46:27.196Z,21.05
2016-09-26T05:47:27.178Z,20.97
2016-09-26T05:48:27.158Z,21.03
2016-09-26T05:49:26.837Z,21
2016-09-26T05:50:27.119Z,21.01
2016-09-26T05:51:27.101Z,21.01
2016-09-26T05:52:27.085Z,21.03
2016-09-26T05:53:27.079Z,21.06
2016-09-26T05:54:27.053Z,21.06
2016-09-26T05:55:27.032Z,21.08
2016-09-26T05:56:27.022Z,21.16
2016-09-26T05:57:27.013Z,21.12
2016-09-26T05:58:26.985Z,21.09
2016-09-26T05:59:26.668Z,21.12
2016-09-26T06:00:26.654Z,20.98
2016-09-26T06:01:26.934Z,21.09
2016-09-26T06:02:26.624Z,21.11
2016-09-26T06:03:26.605Z,21.08
2016-09-26T06:04:26.881Z,21.11
2016-09-26T06:05:26.881Z,21.15
2016-09-26T06:06:26.865Z,21.12
2016-09-26T06:07:26.551Z,21.13
2016-09-26T06:08:26.821Z,21.12
2016-09-26T06:09:26.201Z,21.11
2016-09-26T06:10:26.490Z,21.06
2016-09-26T06:11:26.472Z,21
2016-09-26T06:12:26.754Z,20.97
2016-09-26T06:13:26.446Z,21
2016-09-26T06:14:26.429Z,21.01
2016-09-26T06:15:26.407Z,21.01
2016-09-26T06:16:26.389Z,21
2016-09-26T06:17:26.371Z,20.96
2016-09-26T06:18:26.653Z,21
2016-09-26T06:19:26.649Z,21.01
2016-09-26T06:20:26.629Z,21.05
2016-09-26T06:21:26.609Z,21.01
2016-09-26T06:22:26.292Z,21.06
2016-09-26T06:23:26.578Z,21.01
2016-09-26T06:24:26.557Z,20.98
2016-09-26T06:25:26.533Z,21.06
2016-09-26T06:26:26.222Z,20.98
2016-09-26T06:27:26.509Z,21.01
2016-09-26T06:28:26.200Z,20.98
2016-09-26T06:29:26.201Z,20.94
2016-09-26T06:30:26.157Z,21.01
2016-09-26T06:31:26.452Z,21.01
2016-09-26T06:32:26.425Z,20.98
2016-09-26T06:33:26.411Z,21.06
2016-09-26T06:34:26.387Z,21.05
2016-09-26T06:35:26.379Z,21.01
2016-09-26T06:36:26.055Z,21.05
2016-09-26T06:37:26.339Z,21
2016-09-26T06:38:26.334Z,20.87
2016-09-26T06:39:26.311Z,20.97
2016-09-26T06:40:25.998Z,20.91
2016-09-26T06:41:26.296Z,20.91
2016-09-26T06:42:25.957Z,20.87
2016-09-26T06:43:25.634Z,20.91
2016-09-26T06:44:25.918Z,20.91
2016-09-26T06:45:26.429Z,20.83
2016-09-26T06:46:26.202Z,20.85
2016-09-26T06:47:26.174Z,20.96
2016-09-26T06:48:26.157Z,20.83
2016-09-26T06:49:25.836Z,20.88
2016-09-26T06:50:26.123Z,20.82
2016-09-26T06:51:26.120Z,20.87
2016-09-26T06:52:26.092Z,20.91
2016-09-26T06:53:26.077Z,20.9
2016-09-26T06:54:26.059Z,20.91
2016-09-26T06:55:26.075Z,20.97
2016-09-26T06:56:26.028Z,20.87
2016-09-26T06:57:25.710Z,20.82
2016-09-26T06:58:25.697Z,20.9
2016-09-26T06:59:25.674Z,20.88
2016-09-26T07:00:25.969Z,20.9
2016-09-26T07:01:25.943Z,20.91
2016-09-26T07:02:25.922Z,20.91
2016-09-26T07:03:25.918Z,20.94
2016-09-26T07:04:25.889Z,20.87
2016-09-26T07:05:25.877Z,20.82
2016-09-26T07:06:25.863Z,20.94
2016-09-26T07:07:25.840Z,20.87
2016-09-26T07:08:25.530Z,20.85
2016-09-26T07:09:25.213Z,20.94
2016-09-26T07:10:25.496Z,20.87
2016-09-26T07:11:25.775Z,20.97
2016-09-26T07:12:25.760Z,20.83
2016-09-26T07:13:25.140Z,21.01
2016-09-26T07:14:25.726Z,20.88
2016-09-26T07:15:25.705Z,20.93
2016-09-26T07:16:25.389Z,20.98
2016-09-26T07:17:25.373Z,20.88
2016-09-26T07:18:25.664Z,20.88
2016-09-26T07:19:25.646Z,20.88
2016-09-26T07:20:25.026Z,20.9
2016-09-26T07:21:25.610Z,20.88
2016-09-26T07:22:25.312Z,20.94
2016-09-26T07:23:25.576Z,20.93
2016-09-26T07:24:25.559Z,20.83
2016-09-26T07:25:25.546Z,20.88
2016-09-26T07:26:25.520Z,20.88
2016-09-26T07:27:25.217Z,20.85
2016-09-26T07:28:25.188Z,20.85
2016-09-26T07:29:25.481Z,20.85
2016-09-26T07:30:25.458Z,20.94
2016-09-26T07:31:25.145Z,20.94
2016-09-26T07:32:25.427Z,20.9
2016-09-26T07:33:25.410Z,20.97
2016-09-26T07:34:25.391Z,20.93
2016-09-26T07:35:24.767Z,20.94
2016-09-26T07:36:25.058Z,20.87
2016-09-26T07:37:25.054Z,20.91
2016-09-26T07:38:25.327Z,20.81
2016-09-26T07:39:25.313Z,20.83
2016-09-26T07:40:25.300Z,20.93
2016-09-26T07:41:24.976Z,20.87
2016-09-26T07:42:24.963Z,20.87
2016-09-26T07:43:25.247Z,20.91
2016-09-26T07:44:24.928Z,20.9
2016-09-26T07:45:25.210Z,20.96
2016-09-26T07:46:25.190Z,20.94
2016-09-26T07:47:25.191Z,20.97
2016-09-26T07:48:25.163Z,20.88
2016-09-26T07:49:25.142Z,20.87
2016-09-26T07:50:25.127Z,20.91
2016-09-26T07:51:25.112Z,20.83
2016-09-26T07:52:24.801Z,20.93
2016-09-26T07:53:25.074Z,20.97
2016-09-26T07:54:25.063Z,20.94
2016-09-26T07:55:25.046Z,20.97
2016-09-26T07:56:25.031Z,20.97
2016-09-26T07:57:25.002Z,20.9
2016-09-26T07:58:24.993Z,20.96
2016-09-26T07:59:24.981Z,20.9
2016-09-26T08:00:24.967Z,20.94
2016-09-26T08:01:24.945Z,20.94
2016-09-26T08:02:24.924Z,20.97
2016-09-26T08:03:24.318Z,20.97
2016-09-26T08:04:24.604Z,20.91
2016-09-26T08:05:24.584Z,21
2016-09-26T08:06:24.860Z,20.97
2016-09-26T08:07:24.557Z,20.93
2016-09-26T08:08:24.834Z,20.9
2016-09-26T08:09:24.804Z,20.96
2016-09-26T08:10:24.802Z,20.91
2016-09-26T08:11:24.484Z,20.96
2016-09-26T08:12:24.763Z,21.01
2016-09-26T08:13:24.747Z,21.16
2016-09-26T08:14:24.427Z,21.24
2016-09-26T08:15:24.416Z,21.26
2016-09-26T08:16:24.712Z,21.38
2016-09-26T08:17:24.691Z,21.4
2016-09-26T08:18:24.658Z,21.33
2016-09-26T08:19:24.655Z,21.48
2016-09-26T08:20:24.018Z,21.51
2016-09-26T08:21:24.614Z,21.51
2016-09-26T08:22:24.591Z,21.55
2016-09-26T08:23:24.279Z,21.56
2016-09-26T08:24:24.560Z,21.55
2016-09-26T08:25:24.545Z,21.55
2016-09-26T08:26:24.234Z,21.53
2016-09-26T08:27:24.513Z,21.55
2016-09-26T08:28:23.890Z,21.52
2016-09-26T08:29:24.482Z,21.61
2016-09-26T08:30:24.455Z,21.56
2016-09-26T08:31:24.444Z,21.58
2016-09-26T08:32:24.439Z,21.59
2016-09-26T08:33:24.414Z,21.56
2016-09-26T08:34:24.400Z,21.55
2016-09-26T08:35:24.377Z,21.67
2016-09-26T08:36:24.358Z,21.61
2016-09-26T08:37:24.045Z,21.63
2016-09-26T08:38:24.341Z,21.66
2016-09-26T08:39:24.309Z,21.63
2016-09-26T08:40:24.289Z,21.63
2016-09-26T08:41:24.288Z,21.58
2016-09-26T08:42:23.985Z,21.58
2016-09-26T08:43:23.950Z,21.58
2016-09-26T08:44:24.226Z,21.66
2016-09-26T08:45:23.918Z,21.59
2016-09-26T08:46:24.202Z,21.67
2016-09-26T08:47:23.573Z,21.66
2016-09-26T08:48:24.163Z,21.68
2016-09-26T08:49:23.860Z,21.63
2016-09-26T08:50:23.830Z,21.66
2016-09-26T08:51:24.116Z,21.64
2016-09-26T08:52:24.103Z,21.67
2016-09-26T08:53:24.082Z,21.7
2016-09-26T08:54:24.070Z,21.66
2016-09-26T08:55:24.052Z,21.7
2016-09-26T08:56:23.733Z,21.71
2016-09-26T08:57:23.716Z,21.61
2016-09-26T08:58:23.995Z,21.63
2016-09-26T08:59:23.984Z,21.66
2016-09-26T09:00:23.963Z,21.7
2016-09-26T09:01:23.940Z,21.73
2016-09-26T09:02:23.937Z,21.77
2016-09-26T09:03:23.617Z,21.64
2016-09-26T09:04:23.950Z,21.73
2016-09-26T09:05:23.889Z,21.75
2016-09-26T09:06:23.868Z,21.79
2016-09-26T09:07:23.853Z,21.75
2016-09-26T09:08:23.838Z,21.75
2016-09-26T09:09:23.515Z,21.74
2016-09-26T09:10:23.801Z,21.75
2016-09-26T09:11:23.790Z,21.75
2016-09-26T09:12:23.774Z,21.73
2016-09-26T09:13:23.755Z,21.74
2016-09-26T09:14:23.746Z,21.73
2016-09-26T09:15:23.728Z,21.79
2016-09-26T09:16:23.710Z,21.75
2016-09-26T09:17:23.690Z,21.81
2016-09-26T09:18:23.669Z,21.73
2016-09-26T09:19:23.350Z,21.75
2016-09-26T09:20:23.636Z,21.73
2016-09-26T09:21:23.613Z,21.71
2016-09-26T09:22:23.306Z,21.79
2016-09-26T09:23:23.283Z,21.73
2016-09-26T09:24:23.572Z,21.71
2016-09-26T09:25:23.553Z,21.77
2016-09-26T09:26:23.545Z,21.75
2016-09-26T09:27:23.524Z,21.77
2016-09-26T09:28:23.507Z,21.71
2016-09-26T09:29:23.187Z,21.81
2016-09-26T09:30:23.183Z,21.85
2016-09-26T09:31:23.459Z,21.79
2016-09-26T09:32:23.447Z,21.83
2016-09-26T09:33:23.127Z,21.86
2016-09-26T09:34:23.412Z,21.83
2016-09-26T09:35:23.396Z,21.85
2016-09-26T09:36:23.373Z,21.86
2016-09-26T09:37:23.363Z,21.82
2016-09-26T09:38:23.365Z,21.86
2016-09-26T09:39:23.329Z,21.89
2016-09-26T09:40:23.315Z,21.81
2016-09-26T09:41:23.300Z,21.91
2016-09-26T09:42:22.985Z,21.91
2016-09-26T09:43:23.275Z,21.9
2016-09-26T09:44:23.248Z,21.9
2016-09-26T09:45:23.233Z,21.96
2016-09-26T09:46:23.214Z,21.96
2016-09-26T09:47:23.208Z,21.81
2016-09-26T09:48:22.886Z,21.93
2016-09-26T09:49:23.176Z,21.9
2016-09-26T09:50:23.147Z,21.86
2016-09-26T09:51:23.128Z,22.01
2016-09-26T09:52:23.135Z,21.96
2016-09-26T09:53:22.795Z,21.89
2016-09-26T09:54:22.798Z,21.91
2016-09-26T09:55:23.068Z,21.93
2016-09-26T09:56:22.769Z,21.93
2016-09-26T09:57:23.042Z,21.94
2016-09-26T09:58:23.022Z,21.93
2016-09-26T09:59:22.703Z,21.96
2016-09-26T10:00:22.989Z,21.94
2016-09-26T10:01:22.973Z,22.02
2016-09-26T10:02:22.650Z,21.94
2016-09-26T10:03:22.935Z,21.91
2016-09-26T10:04:22.620Z,21.96
2016-09-26T10:05:22.906Z,21.91
2016-09-26T10:06:22.888Z,21.98
2016-09-26T10:07:22.874Z,21.96
2016-09-26T10:08:22.859Z,21.99
2016-09-26T10:09:22.840Z,21.94
2016-09-26T10:10:22.825Z,21.94
2016-09-26T10:11:22.517Z,21.93
2016-09-26T10:12:22.793Z,21.99
2016-09-26T10:13:22.771Z,21.93
2016-09-26T10:14:22.762Z,21.98
2016-09-26T10:15:22.139Z,21.94
2016-09-26T10:16:22.422Z,22.01
2016-09-26T10:17:22.711Z,22.04
2016-09-26T10:18:22.693Z,22.01
2016-09-26T10:19:22.376Z,21.98
2016-09-26T10:20:22.661Z,22.02
2016-09-26T10:21:22.341Z,22.01
2016-09-26T10:22:22.639Z,22.02
2016-09-26T10:23:22.614Z,21.99
2016-09-26T10:24:22.590Z,22.04
2016-09-26T10:25:22.285Z,22.02
2016-09-26T10:26:22.558Z,22.06
2016-09-26T10:27:22.550Z,22.04
2016-09-26T10:28:22.228Z,21.98
2016-09-26T10:29:22.516Z,22.04
2016-09-26T10:30:22.497Z,22.09
2016-09-26T10:31:22.480Z,22.12
2016-09-26T10:32:22.165Z,22.08
2016-09-26T10:33:22.479Z,22.2
2016-09-26T10:34:22.434Z,22.24
2016-09-26T10:35:22.423Z,22.27
2016-09-26T10:36:22.400Z,22.21
2016-09-26T10:37:22.084Z,22.21
2016-09-26T10:38:22.070Z,22.2
2016-09-26T10:39:22.052Z,22.06
2016-09-26T10:40:22.335Z,21.83
2016-09-26T10:41:22.321Z,21.86
2016-09-26T10:42:22.305Z,21.85
2016-09-26T10:43:22.296Z,21.83
2016-09-26T10:44:22.266Z,21.83
2016-09-26T10:45:22.259Z,21.98
2016-09-26T10:46:21.636Z,21.75
2016-09-26T10:47:21.932Z,21.68
2016-09-26T10:48:22.209Z,21.73
2016-09-26T10:49:21.888Z,21.71
2016-09-26T10:50:21.874Z,21.79
2016-09-26T10:51:21.862Z,21.89
2016-09-26T10:52:21.845Z,21.81
2016-09-26T10:53:22.131Z,21.74
2016-09-26T10:54:21.814Z,21.77
2016-09-26T10:55:21.785Z,21.77
2016-09-26T10:56:22.071Z,21.75
2016-09-26T10:57:22.056Z,21.81
2016-09-26T10:58:21.741Z,21.66
2016-09-26T10:59:21.724Z,21.67
2016-09-26T11:00:22.009Z,21.61
2016-09-26T11:01:21.995Z,21.63
2016-09-26T11:02:21.993Z,21.7
2016-09-26T11:03:21.955Z,21.79
2016-09-26T11:04:21.946Z,21.81
2016-09-26T11:05:21.922Z,21.77
2016-09-26T11:06:21.918Z,21.64
2016-09-26T11:07:21.898Z,21.64
2016-09-26T11:08:21.568Z,21.64
2016-09-26T11:09:21.258Z,21.56
2016-09-26T11:10:21.543Z,21.52
2016-09-26T11:11:21.832Z,21.61
2016-09-26T11:12:21.813Z,21.56
2016-09-26T11:13:21.195Z,21.51
2016-09-26T11:14:21.779Z,21.45
2016-09-26T11:15:21.760Z,21.36
2016-09-26T11:16:21.441Z,21.4
2016-09-26T11:17:21.724Z,21.4
2016-09-26T11:18:21.414Z,21.33
2016-09-26T11:19:21.410Z,21.33
2016-09-26T11:20:21.675Z,21.38
2016-09-26T11:21:21.355Z,21.38
2016-09-26T11:22:21.348Z,21.34
2016-09-26T11:23:21.334Z,21.38
2016-09-26T11:24:21.366Z,21.38
2016-09-26T11:25:21.600Z,21.33
2016-09-26T11:26:21.587Z,21.46
2016-09-26T11:27:21.584Z,21.48
2016-09-26T11:28:21.556Z,21.58
2016-09-26T11:29:21.534Z,21.66
2016-09-26T11:30:21.209Z,21.63
2016-09-26T11:31:21.500Z,21.64
2016-09-26T11:32:21.182Z,21.7
2016-09-26T11:33:21.465Z,21.81
2016-09-26T11:34:21.442Z,21.71
2016-09-26T11:35:21.432Z,21.74
2016-09-26T11:36:21.421Z,21.74
2016-09-26T11:37:21.396Z,21.83
2016-09-26T11:38:21.086Z,21.81
2016-09-26T11:39:21.367Z,21.85
2016-09-26T11:40:21.048Z,21.85
2016-09-26T11:41:21.329Z,21.81
2016-09-26T11:42:21.321Z,21.89
2016-09-26T11:43:21.296Z,21.91
2016-09-26T11:44:21.278Z,21.89
2016-09-26T11:45:21.261Z,21.91
2016-09-26T11:46:21.242Z,21.83
2016-09-26T11:47:21.225Z,21.85
2016-09-26T11:48:20.909Z,21.99
2016-09-26T11:49:20.895Z,21.82
2016-09-26T11:50:21.176Z,21.9
2016-09-26T11:51:20.859Z,21.9
2016-09-26T11:52:20.850Z,21.96
2016-09-26T11:53:21.128Z,21.9
2016-09-26T11:54:21.111Z,21.91
2016-09-26T11:55:21.094Z,21.96
2016-09-26T11:56:21.078Z,21.91
2016-09-26T11:57:21.063Z,21.93
2016-09-26T11:58:21.049Z,21.89
2016-09-26T11:59:20.730Z,21.99
2016-09-26T12:00:21.015Z,21.89
2016-09-26T12:01:21.006Z,21.98
2016-09-26T12:02:20.985Z,21.99
2016-09-26T12:03:20.669Z,21.93
2016-09-26T12:04:20.948Z,21.93
2016-09-26T12:05:20.631Z,21.93
2016-09-26T12:06:20.919Z,21.94
2016-09-26T12:07:20.900Z,21.93
2016-09-26T12:08:20.579Z,21.94
2016-09-26T12:09:20.871Z,21.99
2016-09-26T12:10:20.858Z,21.99
2016-09-26T12:11:20.537Z,21.94
2016-09-26T12:12:20.817Z,21.93
2016-09-26T12:13:20.499Z,21.96
2016-09-26T12:14:20.788Z,21.9
2016-09-26T12:15:20.767Z,21.99
2016-09-26T12:16:20.761Z,21.99
2016-09-26T12:17:20.733Z,21.98
2016-09-26T12:18:20.729Z,21.94
2016-09-26T12:19:20.403Z,21.96
2016-09-26T12:20:20.691Z,21.91
2016-09-26T12:21:20.680Z,22.06
2016-09-26T12:22:20.661Z,22.04
2016-09-26T12:23:20.334Z,22.02
2016-09-26T12:24:20.642Z,22.04
2016-09-26T12:25:20.301Z,22.05
2016-09-26T12:26:20.593Z,22.04
2016-09-26T12:27:20.567Z,22.05
2016-09-26T12:28:20.565Z,22.04
2016-09-26T12:29:20.551Z,22.09
2016-09-26T12:30:20.236Z,22.08
2016-09-26T12:31:20.512Z,22.08
2016-09-26T12:32:20.190Z,22.11
2016-09-26T12:33:20.187Z,22.12
2016-09-26T12:34:20.164Z,22.09
2016-09-26T12:35:20.464Z,22.11
2016-09-26T12:36:20.440Z,22.11
2016-09-26T12:37:20.419Z,22.08
2016-09-26T12:38:20.103Z,22.02
2016-09-26T12:39:20.383Z,22.08
2016-09-26T12:40:20.058Z,22.08
2016-09-26T12:41:20.043Z,22.04
2016-09-26T12:42:20.034Z,22.06
2016-09-26T12:43:20.316Z,22.08
2016-09-26T12:44:20.304Z,22.11
2016-09-26T12:45:20.294Z,22.12
2016-09-26T12:46:20.270Z,22.09
2016-09-26T12:47:20.254Z,22.12
2016-09-26T12:48:20.245Z,22.06
2016-09-26T12:49:20.214Z,22.06
2016-09-26T12:50:20.204Z,22.08
2016-09-26T12:51:20.188Z,22.08
2016-09-26T12:52:20.170Z,22.17
2016-09-26T12:53:20.150Z,22.11
2016-09-26T12:54:19.843Z,22.12
2016-09-26T12:55:20.125Z,22.15